Time;durP1;ratioP1;P1;durP2;ratioP2;P2;SDS_P1;SDS_P2;PMS_P1;PMS_P2;Temp;Humidity;BMP_temperature;BMP_pressure;BME280_temperature;BME280_humidity;BME280_pressure;Samples;Min_cycle;Max_cycle;Signal;HPM_P1;HPM_P2
2023/05/19 00:01:51;;;;;;;16.42;5.50;;;8.00;99.90;;;;;;5007609;28;20515;-69
2023/05/19 00:04:17;;;;;;;20.13;6.55;;;8.00;99.90;;;;;;4950103;28;209437;-69
2023/05/19 00:06:49;;;;;;;26.52;6.70;;;7.90;99.90;;;;;;4988514;28;20054;-70
2023/05/19 00:09:16;;;;;;;25.67;7.35;;;7.90;99.90;;;;;;4946184;28;210026;-70
2023/05/19 00:11:42;;;;;;;18.27;6.70;;;7.90;99.90;;;;;;4991925;28;20046;-71
2023/05/19 00:14:09;;;;;;;17.77;6.38;;;7.90;99.90;;;;;;4945840;28;205575;-69
2023/05/19 00:16:39;;;;;;;18.88;7.07;;;7.90;99.90;;;;;;4995499;28;20526;-70
2023/05/19 00:19:08;;;;;;;18.55;6.40;;;7.90;99.90;;;;;;4940467;28;213202;-70
2023/05/19 00:21:36;;;;;;;24.85;6.72;;;7.80;99.90;;;;;;5002718;28;20072;-70
2023/05/19 00:24:03;;;;;;;18.67;7.20;;;7.80;99.90;;;;;;4963343;28;209698;-70
2023/05/19 00:26:29;;;;;;;22.77;6.85;;;7.80;99.90;;;;;;4999541;28;20062;-71
2023/05/19 00:28:55;;;;;;;20.85;7.07;;;7.80;99.90;;;;;;4973162;28;206987;-70
2023/05/19 00:31:21;;;;;;;17.17;6.78;;;7.80;99.90;;;;;;4988289;28;20054;-70
2023/05/19 00:33:47;;;;;;;22.50;7.32;;;7.80;99.90;;;;;;4937032;28;214110;-70
2023/05/19 00:36:13;;;;;;;21.50;6.80;;;7.80;99.90;;;;;;4997053;28;20050;-70
2023/05/19 00:38:39;;;;;;;25.08;7.05;;;7.70;99.90;;;;;;4946068;28;207416;-71
2023/05/19 00:41:06;;;;;;;19.70;6.63;;;7.70;99.90;;;;;;5023028;28;20053;-71
2023/05/19 00:43:35;;;;;;;19.45;6.65;;;7.70;99.90;;;;;;4951158;28;209430;-70
2023/05/19 00:46:01;;;;;;;19.10;6.53;;;7.70;99.90;;;;;;5024068;28;20065;-70
2023/05/19 00:48:27;;;;;;;19.77;7.18;;;7.70;99.90;;;;;;4958538;28;144399;-70
2023/05/19 00:51:02;;;;;;;16.83;6.50;;;7.70;99.90;;;;;;5017779;28;20073;-69
2023/05/19 00:53:30;;;;;;;15.82;6.60;;;7.70;99.90;;;;;;4939957;28;208171;-69
2023/05/19 00:55:57;;;;;;;20.60;7.03;;;7.60;99.90;;;;;;5014309;28;20423;-70
2023/05/19 00:58:27;;;;;;;21.92;6.90;;;7.60;99.90;;;;;;4932688;28;234119;-71
2023/05/19 01:01:02;;;;;;;19.83;6.47;;;7.60;99.90;;;;;;5009537;28;20054;-70
2023/05/19 01:03:30;;;;;;;17.25;6.97;;;7.60;99.90;;;;;;4978503;28;209630;-70
2023/05/19 01:06:00;;;;;;;18.20;7.00;;;7.60;99.90;;;;;;4998509;28;20057;-70
2023/05/19 01:08:28;;;;;;;23.20;7.07;;;7.60;99.90;;;;;;4928880;28;207885;-70
2023/05/19 01:10:54;;;;;;;19.58;7.25;;;7.50;99.90;;;;;;5013062;28;20072;-70
2023/05/19 01:13:20;;;;;;;17.90;6.70;;;7.50;99.90;;;;;;4949588;28;210740;-70
2023/05/19 01:16:11;;;;;;;22.63;6.82;;;7.50;99.90;;;;;;5014264;28;20049;-71
2023/05/19 01:18:45;;;;;;;21.83;7.75;;;7.50;99.90;;;;;;4953639;28;209269;-70
2023/05/19 01:21:27;;;;;;;22.63;7.60;;;7.50;99.90;;;;;;4986397;28;21034;-70
2023/05/19 01:24:34;;;;;;;20.73;7.35;;;7.50;99.90;;;;;;4941937;28;209901;-70
2023/05/19 01:27:22;;;;;;;21.08;6.70;;;7.40;99.90;;;;;;5006873;28;20511;-71
2023/05/19 01:30:25;;;;;;;18.73;8.10;;;7.40;99.90;;;;;;4962972;28;206923;-70
2023/05/19 01:32:58;;;;;;;18.63;7.40;;;7.30;99.90;;;;;;5006180;28;20053;-70
2023/05/19 01:35:25;;;;;;;21.33;7.45;;;7.30;99.90;;;;;;4982443;28;126400;-70
2023/05/19 01:37:55;;;;;;;24.92;8.27;;;7.30;99.90;;;;;;5012920;28;20065;-70
2023/05/19 01:40:23;;;;;;;22.95;7.38;;;7.30;99.90;;;;;;4954682;28;387314;-70
2023/05/19 01:42:52;;;;;;;22.42;7.38;;;7.30;99.90;;;;;;5013201;28;20057;-70
2023/05/19 01:45:20;;;;;;;20.15;7.53;;;7.30;99.90;;;;;;4987776;28;209571;-70
2023/05/19 01:47:49;;;;;;;17.52;6.82;;;7.30;99.90;;;;;;5016658;28;20053;-70
2023/05/19 01:50:15;;;;;;;19.75;7.88;;;7.30;99.90;;;;;;4969068;28;206831;-69
2023/05/19 01:52:41;;;;;;;23.20;7.22;;;7.30;99.90;;;;;;4988845;28;20504;-70
2023/05/19 01:55:08;;;;;;;21.27;7.55;;;7.30;99.90;;;;;;4981752;28;224811;-69
2023/05/19 01:58:05;;;;;;;31.73;8.75;;;7.30;99.90;;;;;;5022773;28;20061;-70
2023/05/19 02:00:52;;;;;;;21.33;7.78;;;7.30;99.90;;;;;;4938257;28;20050;-70
2023/05/19 02:03:29;;;;;;;25.60;7.70;;;7.30;99.90;;;;;;4935350;28;206384;-70
2023/05/19 02:06:18;;;;;;;27.58;8.40;;;7.20;99.90;;;;;;5002582;28;20049;-70
2023/05/19 02:08:55;;;;;;;23.13;8.05;;;7.20;99.90;;;;;;4950975;28;208043;-70
2023/05/19 02:11:47;;;;;;;23.45;7.60;;;7.20;99.90;;;;;;5011094;28;20097;-71
2023/05/19 02:14:19;;;;;;;23.35;7.05;;;7.10;99.90;;;;;;4954734;28;208065;-70
2023/05/19 02:16:47;;;;;;;;;;;7.10;99.90;;;;;;4997017;28;20050;-71
2023/05/19 02:19:26;;;;;;;24.90;6.68;;;7.10;99.90;;;;;;4944706;28;213094;-70
2023/05/19 02:21:52;;;;;;;22.30;8.25;;;7.00;99.90;;;;;;4986050;28;20754;-70
2023/05/19 02:24:21;;;;;;;23.77;7.60;;;7.10;99.90;;;;;;4945058;28;207903;-70
2023/05/19 02:26:52;;;;;;;21.77;7.38;;;7.00;99.90;;;;;;4985470;28;20538;-71
2023/05/19 02:29:19;;;;;;;24.90;8.30;;;7.00;99.90;;;;;;4948433;28;208206;-71
2023/05/19 02:31:45;;;;;;;20.75;6.88;;;7.00;99.90;;;;;;4999873;28;20045;-71
2023/05/19 02:34:12;;;;;;;22.13;7.70;;;7.00;99.90;;;;;;4953048;28;209578;-71
2023/05/19 02:36:41;;;;;;;26.73;7.32;;;7.00;99.90;;;;;;4990717;28;20129;-70
2023/05/19 02:39:11;;;;;;;22.92;7.78;;;6.90;99.90;;;;;;4969160;28;215493;-71
2023/05/19 02:41:37;;;;;;;22.50;6.95;;;6.90;99.90;;;;;;5005510;28;20049;-70
2023/05/19 02:44:04;;;;;;;16.58;6.50;;;6.90;99.90;;;;;;4954066;28;205907;-71
2023/05/19 02:46:30;;;;;;;19.80;7.15;;;6.90;99.90;;;;;;5002401;28;20439;-71
2023/05/19 02:48:56;;;;;;;20.85;7.15;;;6.90;99.90;;;;;;4942633;28;211082;-70
2023/05/19 02:51:22;;;;;;;23.92;7.75;;;6.80;99.90;;;;;;4998629;28;20617;-70
2023/05/19 02:53:49;;;;;;;23.10;7.40;;;6.80;99.90;;;;;;4957983;28;209713;-71
2023/05/19 02:56:15;;;;;;;24.30;7.80;;;6.80;99.90;;;;;;4990733;28;20431;-71
2023/05/19 02:58:42;;;;;;;21.27;7.47;;;6.70;99.90;;;;;;4915183;28;207418;-71
2023/05/19 03:01:08;;;;;;;16.95;6.57;;;6.70;99.90;;;;;;5011694;28;20054;-70
2023/05/19 03:03:35;;;;;;;20.15;6.95;;;6.70;99.90;;;;;;4955043;28;208539;-71
2023/05/19 03:06:01;;;;;;;22.27;7.07;;;6.70;99.90;;;;;;5003754;28;20061;-70
2023/05/19 03:08:27;;;;;;;19.40;6.88;;;6.70;99.90;;;;;;4940528;28;209787;-71
2023/05/19 03:10:53;;;;;;;19.83;6.53;;;6.70;99.90;;;;;;5027703;28;20054;-70
2023/05/19 03:13:19;;;;;;;24.03;7.40;;;6.70;99.90;;;;;;4950714;28;207383;-70
2023/05/19 03:15:46;;;;;;;19.33;6.32;;;6.70;99.90;;;;;;5014460;28;20038;-71
2023/05/19 03:18:12;;;;;;;18.20;6.07;;;6.60;99.90;;;;;;4961985;28;213194;-71
2023/05/19 03:20:38;;;;;;;23.90;6.85;;;6.60;99.90;;;;;;4999566;28;20056;-71
2023/05/19 03:23:05;;;;;;;21.35;6.22;;;6.60;99.90;;;;;;4965539;28;207247;-71
2023/05/19 03:25:31;;;;;;;24.02;7.28;;;6.60;99.90;;;;;;5010305;28;20066;-71
2023/05/19 03:27:57;;;;;;;24.77;7.53;;;6.60;99.90;;;;;;4973432;28;207891;-70
2023/05/19 03:30:23;;;;;;;24.30;7.63;;;6.60;99.90;;;;;;4980727;28;33503;-71
2023/05/19 03:32:50;;;;;;;25.92;7.57;;;6.50;99.90;;;;;;5002807;28;20069;-72
2023/05/19 03:35:17;;;;;;;23.98;6.90;;;6.60;99.90;;;;;;4952479;28;209899;-71
2023/05/19 03:37:43;;;;;;;27.75;6.80;;;6.60;99.90;;;;;;5007858;28;20069;-71
2023/05/19 03:40:09;;;;;;;20.50;7.68;;;6.60;99.90;;;;;;4951775;28;205857;-70
2023/05/19 03:42:35;;;;;;;24.13;7.22;;;6.50;99.90;;;;;;4985008;28;20511;-71
2023/05/19 03:45:02;;;;;;;22.77;6.88;;;6.50;99.90;;;;;;4961569;28;206628;-72
2023/05/19 03:47:28;;;;;;;21.92;6.85;;;6.60;99.90;;;;;;5008816;28;20388;-72
2023/05/19 03:49:54;;;;;;;21.55;7.25;;;6.60;99.90;;;;;;4975616;28;208046;-70
2023/05/19 03:52:20;;;;;;;27.15;8.40;;;6.60;99.90;;;;;;5005419;28;20648;-71
2023/05/19 03:54:47;;;;;;;19.38;7.43;;;6.60;99.90;;;;;;4957246;28;209709;-71
2023/05/19 03:57:13;;;;;;;22.38;8.20;;;6.60;99.90;;;;;;5005689;28;20423;-72
2023/05/19 03:59:40;;;;;;;22.95;8.05;;;6.70;99.90;;;;;;4947351;28;209597;-72
2023/05/19 04:02:06;;;;;;;35.67;9.25;;;6.80;99.90;;;;;;4983183;28;20034;-71
2023/05/19 04:04:32;;;;;;;27.27;9.02;;;6.80;99.90;;;;;;4939605;28;204128;-71
2023/05/19 04:06:58;;;;;;;25.48;8.63;;;6.90;99.90;;;;;;4988721;28;20054;-71
2023/05/19 04:09:24;;;;;;;24.88;9.13;;;6.90;99.90;;;;;;4948425;28;206795;-70
2023/05/19 04:11:50;;;;;;;27.05;9.13;;;6.90;99.90;;;;;;4995433;28;20400;-70
2023/05/19 04:14:18;;;;;;;26.13;8.80;;;7.00;99.90;;;;;;4957979;28;218515;-70
2023/05/19 04:16:44;;;;;;;29.42;9.38;;;7.10;99.90;;;;;;5012619;28;20113;-70
2023/05/19 04:19:10;;;;;;;25.77;8.93;;;7.10;99.90;;;;;;4966374;28;209067;-70
2023/05/19 04:21:36;;;;;;;25.02;8.90;;;7.20;99.90;;;;;;5011516;28;20038;-70
2023/05/19 04:24:05;;;;;;;23.38;9.32;;;7.30;99.90;;;;;;4943968;28;275450;-71
2023/05/19 04:26:33;;;;;;;24.45;8.32;;;7.30;99.90;;;;;;4994064;28;20054;-70
2023/05/19 04:29:00;;;;;;;25.50;9.85;;;7.40;99.90;;;;;;4942383;28;207680;-71
2023/05/19 04:31:27;;;;;;;21.90;8.82;;;7.40;99.90;;;;;;4992245;28;20057;-70
2023/05/19 04:33:53;;;;;;;27.20;10.02;;;7.50;99.90;;;;;;4954824;28;210523;-70
2023/05/19 04:36:20;;;;;;;33.40;10.50;;;7.60;99.90;;;;;;5016324;28;20034;-71
2023/05/19 04:38:47;;;;;;;25.63;9.85;;;7.70;99.90;;;;;;4953772;28;208023;-71
2023/05/19 04:41:15;;;;;;;27.05;9.48;;;7.80;99.90;;;;;;5001605;28;20507;-71
2023/05/19 04:43:43;;;;;;;32.35;10.70;;;7.90;99.90;;;;;;4955905;28;207088;-71
2023/05/19 04:46:13;;;;;;;26.48;9.75;;;7.90;99.90;;;;;;5007025;28;20547;-71
2023/05/19 04:48:39;;;;;;;26.98;10.60;;;8.00;99.90;;;;;;4929752;28;229689;-72
2023/05/19 04:51:06;;;;;;;28.00;9.82;;;8.10;99.90;;;;;;4979854;28;20069;-71
2023/05/19 04:53:32;;;;;;;25.00;10.65;;;8.20;99.90;;;;;;4924632;28;207025;-71
2023/05/19 04:55:59;;;;;;;26.77;9.90;;;8.30;99.90;;;;;;5000133;28;20534;-71
2023/05/19 04:58:27;;;;;;;23.77;9.50;;;8.40;99.90;;;;;;4916027;28;225089;-70
2023/05/19 05:00:59;;;;;;;29.25;9.45;;;8.50;99.90;;;;;;4974466;28;20046;-71
2023/05/19 05:03:25;;;;;;;24.40;9.02;;;8.60;99.90;;;;;;4926457;28;209231;-71
2023/05/19 05:05:51;;;;;;;27.08;9.43;;;8.70;99.90;;;;;;5003461;28;20046;-71
2023/05/19 05:08:22;;;;;;;23.75;9.20;;;8.80;99.90;;;;;;4932475;28;207373;-71
2023/05/19 05:10:50;;;;;;;26.98;9.43;;;8.90;99.90;;;;;;5019928;28;20065;-71
2023/05/19 05:13:17;;;;;;;25.70;8.67;;;9.00;99.90;;;;;;4946289;28;209422;-70
2023/05/19 05:15:43;;;;;;;16.67;7.28;;;9.10;99.90;;;;;;5001688;28;20054;-72
2023/05/19 05:18:10;;;;;;;25.30;7.82;;;9.20;99.90;;;;;;4931747;28;214808;-70
2023/05/19 05:20:36;;;;;;;26.88;8.40;;;9.30;99.90;;;;;;5010843;28;20055;-71
2023/05/19 05:23:03;;;;;;;22.42;8.20;;;9.40;99.90;;;;;;4954766;28;209699;-69
2023/05/19 05:25:29;;;;;;;21.80;8.13;;;9.50;99.90;;;;;;4994061;28;20042;-71
2023/05/19 05:27:57;;;;;;;23.73;7.55;;;9.70;99.90;;;;;;4989573;28;20057;-71
2023/05/19 05:30:23;;;;;;;19.13;6.97;;;9.80;99.90;;;;;;4976827;28;201840;-71
2023/05/19 05:32:49;;;;;;;20.92;7.07;;;10.00;99.90;;;;;;5009712;28;20064;-71
2023/05/19 05:35:15;;;;;;;18.73;6.53;;;10.30;99.90;;;;;;5004651;28;208458;-71
2023/05/19 05:37:41;;;;;;;25.17;6.22;;;10.50;99.90;;;;;;5042108;28;20427;-71
2023/05/19 05:40:08;;;;;;;16.17;5.85;;;10.80;99.90;;;;;;4967667;28;207899;-71
2023/05/19 05:42:34;;;;;;;24.27;6.55;;;11.00;99.90;;;;;;5005693;28;20053;-71
2023/05/19 05:45:00;;;;;;;16.77;6.18;;;11.00;99.90;;;;;;4948784;28;206372;-71
2023/05/19 05:47:26;;;;;;;17.77;5.75;;;11.00;99.90;;;;;;4986843;28;20054;-71
2023/05/19 05:49:53;;;;;;;19.08;5.90;;;11.10;99.90;;;;;;4965427;28;208466;-70
2023/05/19 05:52:21;;;;;;;18.45;5.85;;;11.40;99.90;;;;;;4989098;28;20055;-70
2023/05/19 05:54:47;;;;;;;19.00;6.18;;;11.60;99.90;;;;;;4951090;28;206211;-72
2023/05/19 05:57:13;;;;;;;15.90;5.22;;;11.80;99.90;;;;;;4989805;28;20062;-72
2023/05/19 05:59:39;;;;;;;16.20;5.10;;;12.00;99.90;;;;;;4935060;28;221924;-71
2023/05/19 06:02:06;;;;;;;18.83;5.22;;;12.30;99.90;;;;;;5001823;28;20487;-71
2023/05/19 06:04:32;;;;;;;15.75;5.10;;;12.60;99.90;;;;;;4964054;28;208532;-70
2023/05/19 06:07:00;;;;;;;13.77;5.10;;;12.90;99.90;;;;;;5008996;28;20420;-70
2023/05/19 06:09:27;;;;;;;17.90;5.00;;;13.10;99.90;;;;;;4951044;28;207078;-70
2023/05/19 06:11:53;;;;;;;18.75;5.32;;;13.10;99.90;;;;;;4989739;28;20069;-70
2023/05/19 06:14:19;;;;;;;16.17;5.05;;;13.00;99.90;;;;;;4964334;28;209869;-71
2023/05/19 06:16:46;;;;;;;15.00;4.68;;;13.10;99.90;;;;;;4998045;28;20069;-71
2023/05/19 06:19:13;;;;;;;13.20;4.10;;;13.20;99.90;;;;;;4936569;28;209588;-70
2023/05/19 06:21:41;;;;;;;15.15;4.63;;;13.50;99.90;;;;;;4985813;28;20058;-71
2023/05/19 06:24:07;;;;;;;13.63;3.90;;;13.80;99.90;;;;;;4947292;28;206449;-70
2023/05/19 06:26:33;;;;;;;13.75;4.35;;;13.90;99.90;;;;;;5013119;28;20122;-71
2023/05/19 06:29:00;;;;;;;14.90;4.43;;;14.00;99.90;;;;;;4955665;28;209122;-71
2023/05/19 06:31:27;;;;;;;14.90;4.28;;;14.20;99.90;;;;;;5000487;28;20046;-71
2023/05/19 06:33:53;;;;;;;17.83;4.30;;;14.50;99.90;;;;;;4943265;28;210207;-70
2023/05/19 06:36:19;;;;;;;15.82;4.30;;;14.80;99.90;;;;;;5013515;28;20074;-70
2023/05/19 06:38:45;;;;;;;16.52;3.92;;;15.00;99.90;;;;;;4962487;28;207294;-69
2023/05/19 06:41:12;;;;;;;14.20;4.10;;;15.10;99.90;;;;;;5012904;28;20057;-70
2023/05/19 06:43:38;;;;;;;14.70;4.47;;;15.30;99.90;;;;;;4974353;28;202929;-70
2023/05/19 06:46:04;;;;;;;14.07;4.00;;;15.50;99.90;;;;;;4998354;28;20523;-70
2023/05/19 06:48:30;;;;;;;13.77;4.07;;;15.80;99.90;;;;;;4938034;28;213026;-71
2023/05/19 06:50:56;;;;;;;16.98;4.22;;;15.60;99.90;;;;;;5011347;28;20431;-70
2023/05/19 06:53:22;;;;;;;11.80;3.70;;;15.80;99.90;;;;;;4942283;28;221546;-70
2023/05/19 06:55:51;;;;;;;16.00;4.38;;;15.90;99.90;;;;;;4986749;28;20054;-70
2023/05/19 06:58:17;;;;;;;13.23;3.80;;;16.20;99.90;;;;;;4926088;28;209127;-70
2023/05/19 07:00:43;;;;;;;15.18;4.18;;;16.40;99.90;;;;;;5020363;28;20058;-70
2023/05/19 07:03:09;;;;;;;14.95;4.25;;;16.40;99.40;;;;;;4977842;28;208865;-71
2023/05/19 07:05:35;;;;;;;17.45;4.45;;;16.60;99.90;;;;;;5031901;28;20046;-71
2023/05/19 07:08:02;;;;;;;11.75;4.00;;;16.90;99.90;;;;;;4974939;28;207333;-67
2023/05/19 07:10:29;;;;;;;15.82;4.40;;;17.00;99.90;;;;;;5001009;28;20180;-70
2023/05/19 07:12:55;;;;;;;13.57;3.70;;;17.40;99.70;;;;;;4991553;28;20062;-70
2023/05/19 07:15:21;;;;;;;12.27;3.80;;;17.60;99.00;;;;;;4967015;28;209907;-68
2023/05/19 07:17:47;;;;;;;12.82;3.88;;;17.90;98.60;;;;;;5008829;28;20537;-70
2023/05/19 07:20:13;;;;;;;11.02;3.30;;;18.00;97.20;;;;;;4971679;28;209162;-70
2023/05/19 07:22:40;;;;;;;12.38;3.25;;;18.00;97.90;;;;;;5009929;28;20064;-70
2023/05/19 07:25:06;;;;;;;11.65;3.15;;;18.30;97.50;;;;;;4979893;28;210964;-69
2023/05/19 07:27:32;;;;;;;13.20;3.00;;;18.50;97.80;;;;;;5015445;28;20438;-70
2023/05/19 07:29:59;;;;;;;11.93;3.42;;;18.90;97.00;;;;;;4974893;28;208648;-69
2023/05/19 07:32:25;;;;;;;10.63;3.08;;;19.00;96.30;;;;;;4990912;28;20091;-70
2023/05/19 07:34:51;;;;;;;12.00;3.00;;;19.00;95.50;;;;;;4958033;28;207457;-70
2023/05/19 07:37:17;;;;;;;11.35;3.00;;;19.10;96.10;;;;;;4993302;28;20057;-70
2023/05/19 07:39:43;;;;;;;13.65;3.08;;;19.40;96.00;;;;;;4971906;28;227736;-70
2023/05/19 07:42:09;;;;;;;10.85;3.10;;;19.50;94.40;;;;;;4997440;28;20383;-70
2023/05/19 07:44:36;;;;;;;11.25;3.03;;;19.30;94.60;;;;;;4948873;28;210914;-70
2023/05/19 07:47:02;;;;;;;11.80;2.72;;;19.30;93.90;;;;;;4994461;28;20046;-70
2023/05/19 07:49:28;;;;;;;14.50;3.10;;;19.40;94.20;;;;;;4946272;28;215264;-70
2023/05/19 07:51:54;;;;;;;12.10;3.00;;;19.40;93.90;;;;;;4995030;28;20058;-71
2023/05/19 07:54:20;;;;;;;15.18;3.00;;;19.70;92.90;;;;;;4941816;28;213110;-69
2023/05/19 07:56:47;;;;;;;10.80;2.90;;;19.70;93.90;;;;;;4986518;28;20050;-71
2023/05/19 07:59:14;;;;;;;11.20;3.00;;;19.80;93.20;;;;;;4950187;28;207278;-71
2023/05/19 08:01:40;;;;;;;14.23;2.75;;;20.30;94.10;;;;;;5019987;28;20054;-70
2023/05/19 08:04:07;;;;;;;12.73;2.70;;;20.30;92.80;;;;;;4954799;28;207455;-70
2023/05/19 08:06:34;;;;;;;12.25;2.90;;;20.40;91.70;;;;;;4995980;28;20057;-70
2023/05/19 08:09:00;;;;;;;9.60;2.55;;;20.30;91.30;;;;;;4949021;28;212152;-70
2023/05/19 08:11:26;;;;;;;9.90;2.67;;;20.30;91.40;;;;;;5006338;28;20054;-71
2023/05/19 08:13:53;;;;;;;12.05;2.83;;;20.30;91.40;;;;;;4944117;28;209899;-70
2023/05/19 08:16:19;;;;;;;11.45;2.63;;;20.60;90.70;;;;;;5003537;28;20093;-70
2023/05/19 08:18:45;;;;;;;10.80;2.38;;;21.10;90.80;;;;;;4952321;28;207105;-69
2023/05/19 08:21:11;;;;;;;10.95;2.42;;;21.10;90.40;;;;;;5005364;28;20525;-70
2023/05/19 08:23:37;;;;;;;12.13;2.70;;;21.20;90.40;;;;;;4962365;28;207946;-69
2023/05/19 08:26:04;;;;;;;10.77;2.80;;;21.40;90.00;;;;;;4997468;28;20157;-69
2023/05/19 08:28:30;;;;;;;10.70;2.63;;;21.40;90.10;;;;;;4928324;28;209343;-70
2023/05/19 08:30:56;;;;;;;12.45;2.33;;;22.00;90.00;;;;;;5000899;28;20058;-70
2023/05/19 08:33:23;;;;;;;11.55;2.50;;;22.40;88.30;;;;;;4937057;28;209284;-71
2023/05/19 08:35:49;;;;;;;10.80;2.17;;;22.40;87.90;;;;;;4993678;28;20058;-71
2023/05/19 08:38:15;;;;;;;9.80;2.40;;;22.40;85.70;;;;;;4940911;28;209264;-70
2023/05/19 08:40:42;;;;;;;11.60;2.53;;;22.40;85.80;;;;;;5011527;28;20061;-70
2023/05/19 08:43:08;;;;;;;13.05;2.33;;;22.30;84.80;;;;;;4943431;28;208194;-69
2023/05/19 08:45:35;;;;;;;9.38;2.47;;;22.10;82.30;;;;;;5035831;28;20065;-70
2023/05/19 08:48:02;;;;;;;9.88;2.03;;;22.10;83.70;;;;;;4982858;28;211673;-70
2023/05/19 08:50:32;;;;;;;9.00;2.22;;;22.20;82.40;;;;;;4994620;28;20835;-70
2023/05/19 08:53:08;;;;;;;9.90;2.33;;;22.10;80.40;;;;;;4990515;28;213582;-69
2023/05/19 08:56:00;;;;;;;10.35;2.53;;;22.20;80.70;;;;;;4996238;28;43835;-71
2023/05/19 08:58:27;;;;;;;10.27;2.40;;;22.70;80.00;;;;;;4936654;28;212071;-70
2023/05/19 09:00:55;;;;;;;10.68;2.42;;;22.90;79.90;;;;;;4978834;28;20050;-70
2023/05/19 09:03:22;;;;;;;11.85;2.30;;;22.80;79.20;;;;;;4942092;28;207253;-70
2023/05/19 09:05:48;;;;;;;13.57;2.50;;;22.80;79.00;;;;;;5021062;28;20058;-70
2023/05/19 09:08:14;;;;;;;12.77;2.40;;;23.30;78.60;;;;;;4949741;28;209455;-69
2023/05/19 09:10:40;;;;;;;9.95;2.30;;;23.50;76.60;;;;;;5005473;28;20134;-70
2023/05/19 09:13:07;;;;;;;10.95;2.30;;;23.70;75.80;;;;;;4933323;28;209019;-70
2023/05/19 09:15:35;;;;;;;10.57;2.25;;;23.50;74.60;;;;;;5014235;28;20085;-70
2023/05/19 09:18:09;;;;;;;9.85;2.30;;;23.00;73.30;;;;;;4979572;28;212695;-69
2023/05/19 09:20:40;;;;;;;8.68;2.03;;;23.00;72.40;;;;;;4946531;28;20042;-69
2023/05/19 09:23:07;;;;;;;11.83;2.17;;;22.90;72.70;;;;;;4931059;28;209159;-71
2023/05/19 09:25:33;;;;;;;9.93;2.05;;;22.90;73.30;;;;;;5008865;28;20452;-69
2023/05/19 09:27:59;;;;;;;10.90;2.28;;;23.60;72.60;;;;;;4966083;28;208303;-68
2023/05/19 09:30:25;;;;;;;10.02;2.20;;;24.50;74.10;;;;;;4982217;28;20060;-70
2023/05/19 09:32:51;;;;;;;10.93;2.33;;;25.00;72.60;;;;;;5006730;28;20064;-70
2023/05/19 09:35:19;;;;;;;12.73;2.22;;;25.20;69.10;;;;;;4973560;28;207164;-71
2023/05/19 09:37:45;;;;;;;11.13;1.92;;;25.60;69.50;;;;;;5005534;28;20061;-68
2023/05/19 09:40:15;;;;;;;9.40;2.15;;;25.80;66.90;;;;;;4950135;28;207026;-70
2023/05/19 09:42:42;;;;;;;9.35;2.00;;;25.10;64.60;;;;;;4986257;28;20061;-69
2023/05/19 09:45:09;;;;;;;8.43;2.08;;;24.70;67.10;;;;;;4967613;28;206419;-73
2023/05/19 09:47:39;;;;;;;11.23;2.50;;;24.30;67.50;;;;;;4984796;28;20054;-69
2023/05/19 09:50:08;;;;;;;10.63;2.30;;;24.80;64.30;;;;;;4965110;28;208086;-69
2023/05/19 09:52:38;;;;;;;9.63;2.20;;;24.70;66.90;;;;;;4985427;28;20065;-70
2023/05/19 09:55:08;;;;;;;10.82;2.35;;;24.70;66.80;;;;;;4958526;28;213382;-70
2023/05/19 09:57:38;;;;;;;12.20;2.30;;;25.50;66.30;;;;;;4988923;28;20085;-69
2023/05/19 10:00:18;;;;;;;12.50;2.40;;;25.50;65.00;;;;;;4970152;28;206172;-69
2023/05/19 10:02:45;;;;;;;11.27;2.47;;;25.10;63.60;;;;;;4987636;28;20054;-69
2023/05/19 10:05:19;;;;;;;11.02;2.47;;;24.70;63.70;;;;;;4957602;28;207144;-69
2023/05/19 10:07:48;;;;;;;9.77;2.38;;;24.40;63.00;;;;;;4990251;28;20055;-69
2023/05/19 10:10:14;;;;;;;8.73;2.40;;;24.00;62.90;;;;;;4977997;28;210672;-70
2023/05/19 10:12:41;;;;;;;9.93;2.25;;;23.90;63.30;;;;;;5008760;28;20057;-70
2023/05/19 10:15:10;;;;;;;10.60;2.40;;;24.10;63.40;;;;;;4969091;28;208812;-69
2023/05/19 10:17:40;;;;;;;10.77;2.17;;;24.70;64.60;;;;;;4983874;28;20423;-69
2023/05/19 10:20:11;;;;;;;8.27;2.13;;;25.30;62.30;;;;;;4971001;28;209386;-69
2023/05/19 10:22:38;;;;;;;10.10;2.53;;;25.50;61.40;;;;;;5005429;28;20054;-69
2023/05/19 10:25:06;;;;;;;8.52;2.33;;;25.50;61.80;;;;;;4969882;28;207907;-69
2023/05/19 10:27:36;;;;;;;10.52;2.42;;;25.50;61.50;;;;;;4989965;28;20130;-69
2023/05/19 10:30:17;;;;;;;10.30;2.50;;;25.70;60.50;;;;;;4973738;28;208861;-69
2023/05/19 10:32:47;;;;;;;9.07;2.10;;;26.30;63.20;;;;;;4985999;28;20583;-69
2023/05/19 10:35:41;;;;;;;9.60;2.33;;;26.90;64.10;;;;;;4966501;28;178837;-69
2023/05/19 10:38:29;;;;;;;9.55;2.13;;;27.50;64.00;;;;;;4935260;28;212293;-69
2023/05/19 10:41:09;;;;;;;9.73;2.13;;;27.80;63.70;;;;;;5010871;28;20069;-70
2023/05/19 10:43:46;;;;;;;11.13;2.23;;;27.90;61.40;;;;;;4942813;28;207778;-69
2023/05/19 10:46:13;;;;;;;10.48;2.58;;;28.40;62.50;;;;;;5018925;28;20308;-69
2023/05/19 10:48:43;;;;;;;9.65;2.05;;;28.50;60.90;;;;;;4966492;28;209192;-69
2023/05/19 10:51:11;;;;;;;10.75;2.20;;;28.50;58.60;;;;;;5034856;28;20054;-69
2023/05/19 10:53:45;;;;;;;9.10;1.98;;;27.60;59.10;;;;;;4968756;28;210537;-70
2023/05/19 10:56:32;;;;;;;11.25;2.35;;;27.00;58.80;;;;;;5008300;28;20054;-69
2023/05/19 10:59:00;;;;;;;10.23;2.50;;;27.10;58.20;;;;;;4951077;28;209032;-69
2023/05/19 11:01:34;;;;;;;9.23;2.35;;;27.60;59.00;;;;;;5020526;28;20431;-69
2023/05/19 11:04:05;;;;;;;9.15;2.10;;;27.20;57.40;;;;;;4986442;28;205852;-69
2023/05/19 11:06:34;;;;;;;10.38;2.22;;;27.20;59.90;;;;;;4997043;28;20058;-69
2023/05/19 11:09:14;;;;;;;12.23;2.87;;;27.90;59.90;;;;;;4960672;28;210636;-69
2023/05/19 11:11:45;;;;;;;10.00;2.53;;;28.30;58.70;;;;;;5028259;28;20049;-69
2023/05/19 11:14:15;;;;;;;9.98;2.20;;;28.60;56.60;;;;;;4971054;28;207970;-69
2023/05/19 11:16:42;;;;;;;11.68;2.30;;;28.90;59.70;;;;;;5005166;28;20065;-69
2023/05/19 11:19:09;;;;;;;9.25;2.28;;;28.70;56.60;;;;;;4962937;28;207332;-71
2023/05/19 11:21:53;;;;;;;11.70;2.70;;;28.00;56.10;;;;;;5028122;28;20057;-69
2023/05/19 11:24:45;;;;;;;10.88;2.40;;;27.10;54.30;;;;;;4967540;28;209222;-70
2023/05/19 11:27:30;;;;;;;11.43;2.35;;;26.40;57.00;;;;;;4995129;28;20051;-69
2023/05/19 11:30:10;;;;;;;12.48;2.78;;;26.70;56.10;;;;;;4962520;28;208885;-71
2023/05/19 11:32:41;;;;;;;9.93;2.40;;;26.90;57.50;;;;;;4990118;28;20400;-71
2023/05/19 11:35:10;;;;;;;10.63;2.70;;;26.70;57.60;;;;;;4959755;28;208546;-70
2023/05/19 11:37:39;;;;;;;10.37;2.70;;;26.40;56.90;;;;;;4990949;28;20058;-70
2023/05/19 11:40:06;;;;;;;10.32;2.63;;;26.60;57.00;;;;;;4970278;28;208474;-70
2023/05/19 11:42:33;;;;;;;10.85;2.85;;;26.10;56.10;;;;;;4987435;28;20050;-70
2023/05/19 11:45:00;;;;;;;9.00;2.33;;;26.70;57.40;;;;;;4969239;28;212189;-70
2023/05/19 11:47:26;;;;;;;10.57;2.70;;;27.00;57.10;;;;;;5009029;28;20040;-69
2023/05/19 11:49:55;;;;;;;9.40;2.50;;;27.00;59.00;;;;;;4963652;28;212790;-71
2023/05/19 11:52:22;;;;;;;10.93;2.40;;;27.40;57.40;;;;;;4985424;28;20049;-69
2023/05/19 11:54:49;;;;;;;11.13;2.45;;;27.80;59.70;;;;;;4956020;28;208212;-70
2023/05/19 11:57:15;;;;;;;12.05;2.90;;;27.60;58.80;;;;;;4991425;28;20066;-70
2023/05/19 11:59:46;;;;;;;11.63;2.70;;;27.70;58.20;;;;;;4918955;28;207028;-70
2023/05/19 12:02:26;;;;;;;9.57;2.50;;;27.30;56.60;;;;;;4988274;28;20316;-70
2023/05/19 12:04:53;;;;;;;11.68;2.70;;;26.20;57.30;;;;;;4977740;28;208655;-69
2023/05/19 12:07:22;;;;;;;9.13;2.40;;;26.10;58.80;;;;;;5010513;28;20053;-70
2023/05/19 12:09:50;;;;;;;10.90;2.78;;;26.60;58.80;;;;;;4978619;28;211618;-70
2023/05/19 12:12:20;;;;;;;10.85;2.70;;;26.40;56.30;;;;;;5005701;28;20789;-70
2023/05/19 12:14:51;;;;;;;12.07;2.78;;;25.90;57.70;;;;;;4962570;28;207177;-71
2023/05/19 12:17:19;;;;;;;10.45;2.45;;;25.90;57.70;;;;;;4986882;28;20057;-69
2023/05/19 12:19:47;;;;;;;11.60;2.55;;;25.80;57.50;;;;;;4945865;28;207000;-69
2023/05/19 12:22:17;;;;;;;13.73;3.17;;;26.00;59.80;;;;;;4991332;28;20415;-69
2023/05/19 12:24:45;;;;;;;13.15;2.90;;;26.30;57.90;;;;;;4949140;28;207435;-71
2023/05/19 12:27:13;;;;;;;9.77;2.50;;;25.70;58.60;;;;;;4989312;28;20046;-70
2023/05/19 12:29:40;;;;;;;9.32;2.50;;;25.80;59.60;;;;;;4954384;28;206710;-70
2023/05/19 12:32:07;;;;;;;13.20;2.78;;;26.30;61.70;;;;;;4982843;28;20046;-70
2023/05/19 12:34:37;;;;;;;10.18;2.85;;;26.90;58.10;;;;;;4963181;28;207661;-70
2023/05/19 12:37:04;;;;;;;10.98;3.00;;;26.70;59.30;;;;;;5011512;28;20057;-70
2023/05/19 12:39:31;;;;;;;9.93;2.80;;;26.60;58.10;;;;;;4962718;28;208474;-71
2023/05/19 12:42:11;;;;;;;11.60;2.75;;;26.30;59.30;;;;;;4991607;28;20425;-69
2023/05/19 12:44:41;;;;;;;;;;;25.90;59.60;;;;;;4970230;28;210733;-70
2023/05/19 12:47:07;;;;;;;10.60;3.05;;;25.70;59.00;;;;;;4987164;28;19925;-69